Time;durP1;ratioP1;P1;durP2;ratioP2;P2;SDS_P1;SDS_P2;PMS_P1;PMS_P2;Temp;Humidity;BMP_temperature;BMP_pressure;BME280_temperature;BME280_humidity;BME280_pressure;Samples;Min_cycle;Max_cycle;Signal;HPM_P1;HPM_P2
2021/09/28 00:01:31;;;;;;;9.03;2.30;;;13.70;95.80;;;;;;5076566;28;20683;-81
2021/09/28 00:03:56;;;;;;;6.50;2.13;;;13.70;96.00;;;;;;5076448;28;20207;-81
2021/09/28 00:06:24;;;;;;;7.47;2.00;;;13.70;96.10;;;;;;5076385;28;20512;-81
2021/09/28 00:08:50;;;;;;;7.63;2.20;;;13.80;96.10;;;;;;5075787;28;20176;-81
2021/09/28 00:11:16;;;;;;;8.53;2.13;;;13.70;96.00;;;;;;5075478;28;20172;-79
2021/09/28 00:13:42;;;;;;;10.20;2.80;;;13.80;95.90;;;;;;5075972;28;20176;-81
2021/09/28 00:16:08;;;;;;;9.73;2.57;;;13.80;95.50;;;;;;5075547;28;20520;-80
2021/09/28 00:18:33;;;;;;;8.53;2.10;;;13.70;96.00;;;;;;5075847;28;20210;-81
2021/09/28 00:20:59;;;;;;;10.57;2.47;;;13.70;95.90;;;;;;5094338;28;20168;-83
2021/09/28 00:23:25;;;;;;;10.60;2.30;;;13.70;96.00;;;;;;5094068;28;20275;-81
2021/09/28 00:25:53;;;;;;;7.37;2.07;;;13.60;96.20;;;;;;5093608;28;20199;-80
2021/09/28 00:28:19;;;;;;;7.77;1.90;;;13.70;96.50;;;;;;5076342;28;20188;-81
2021/09/28 00:30:45;;;;;;;7.97;2.30;;;13.50;96.60;;;;;;5075234;28;20265;-81
2021/09/28 00:33:11;;;;;;;8.60;2.17;;;13.50;96.70;;;;;;5094012;28;20171;-81
2021/09/28 00:35:37;;;;;;;8.73;2.00;;;13.50;96.70;;;;;;5093386;28;20202;-80
2021/09/28 00:38:04;;;;;;;8.63;2.30;;;13.50;96.90;;;;;;5122675;28;20171;-81
2021/09/28 00:40:30;;;;;;;8.13;1.83;;;13.60;97.00;;;;;;5097769;28;20171;-81
2021/09/28 00:42:57;;;;;;;8.20;2.17;;;13.50;96.90;;;;;;5114586;28;20641;-81
2021/09/28 00:45:23;;;;;;;7.47;1.93;;;13.60;97.10;;;;;;5095078;28;20175;-82
2021/09/28 00:47:49;;;;;;;10.80;2.57;;;13.40;97.10;;;;;;5095757;28;20171;-80
2021/09/28 00:50:16;;;;;;;11.00;1.80;;;13.50;97.20;;;;;;5095245;28;20179;-80
2021/09/28 00:52:42;;;;;;;8.63;2.20;;;13.40;96.90;;;;;;5096633;28;20176;-82
2021/09/28 00:55:08;;;;;;;9.70;2.27;;;13.40;97.10;;;;;;5095393;28;20167;-81
2021/09/28 00:57:35;;;;;;;8.73;2.13;;;13.40;97.10;;;;;;5095607;28;20182;-81
2021/09/28 01:00:03;;;;;;;8.93;2.30;;;13.40;97.20;;;;;;5113513;28;20210;-81
2021/09/28 01:02:30;;;;;;;10.30;2.13;;;13.40;97.10;;;;;;5113582;28;20190;-81
2021/09/28 01:04:56;;;;;;;6.67;1.63;;;13.40;96.90;;;;;;5095371;28;20174;-82
2021/09/28 01:07:22;;;;;;;6.27;1.80;;;13.50;96.70;;;;;;5112918;28;20246;-82
2021/09/28 01:09:48;;;;;;;8.87;1.73;;;13.50;96.70;;;;;;5113504;28;20204;-81
2021/09/28 01:12:14;;;;;;;9.90;2.50;;;13.50;96.60;;;;;;5095267;28;20226;-81
2021/09/28 01:14:42;;;;;;;8.40;1.93;;;13.50;96.60;;;;;;5113562;28;20220;-81
2021/09/28 01:17:13;;;;;;;6.60;2.40;;;13.40;96.80;;;;;;5095243;28;20232;-79
2021/09/28 01:19:39;;;;;;;7.13;2.03;;;13.50;96.90;;;;;;5113549;28;20297;-81
2021/09/28 01:22:09;;;;;;;8.27;1.97;;;13.40;96.70;;;;;;5113381;28;20170;-81
2021/09/28 01:24:35;;;;;;;8.67;2.40;;;13.40;96.70;;;;;;5094677;28;20210;-81
2021/09/28 01:27:01;;;;;;;7.07;1.90;;;13.40;97.00;;;;;;5094802;28;20171;-81
2021/09/28 01:29:27;;;;;;;7.03;2.13;;;13.40;97.10;;;;;;5117460;28;20262;-81
2021/09/28 01:31:53;;;;;;;4.87;1.80;;;13.30;97.20;;;;;;5117657;28;20250;-81
2021/09/28 01:34:20;;;;;;;10.73;2.20;;;13.30;97.30;;;;;;5115746;28;20181;-81
2021/09/28 01:36:47;;;;;;;7.10;2.53;;;13.50;97.40;;;;;;5096814;28;20171;-80
2021/09/28 01:39:14;;;;;;;5.83;2.07;;;13.30;96.90;;;;;;5078717;28;20313;-80
2021/09/28 01:41:41;;;;;;;8.77;2.10;;;13.30;96.90;;;;;;5078017;28;20178;-83
2021/09/28 01:44:08;;;;;;;8.40;2.20;;;13.30;97.00;;;;;;5077373;28;20175;-80
2021/09/28 01:46:36;;;;;;;7.57;2.17;;;13.30;97.50;;;;;;5097184;28;20177;-82
2021/09/28 01:49:03;;;;;;;9.37;1.70;;;13.40;97.20;;;;;;5079073;28;20187;-81
2021/09/28 01:51:29;;;;;;;8.23;2.03;;;13.30;97.30;;;;;;5079404;28;20297;-82
2021/09/28 01:53:54;;;;;;;8.90;2.07;;;13.20;97.50;;;;;;5080707;28;20207;-81
2021/09/28 01:56:22;;;;;;;7.13;2.20;;;13.30;97.60;;;;;;5078554;28;20624;-82
2021/09/28 01:58:48;;;;;;;10.23;2.07;;;13.20;97.70;;;;;;5078681;28;20229;-81
2021/09/28 02:01:14;;;;;;;7.43;1.80;;;13.20;97.90;;;;;;5096817;28;20251;-81
2021/09/28 02:03:40;;;;;;;9.13;2.00;;;13.20;97.90;;;;;;5096634;28;20640;-80
2021/09/28 02:06:08;;;;;;;8.23;2.10;;;13.30;97.70;;;;;;5078113;28;20168;-81
2021/09/28 02:08:34;;;;;;;8.13;2.30;;;13.20;97.80;;;;;;5078407;28;20183;-81
2021/09/28 02:10:59;;;;;;;7.23;2.00;;;13.10;98.10;;;;;;5096632;28;20213;-81
2021/09/28 02:13:28;;;;;;;10.00;2.37;;;13.10;98.40;;;;;;5096098;28;20541;-81
2021/09/28 02:15:53;;;;;;;6.27;1.97;;;13.20;98.60;;;;;;5096383;28;20278;-80
2021/09/28 02:18:19;;;;;;;7.20;2.00;;;13.00;98.40;;;;;;5096206;28;20286;-82
2021/09/28 02:20:45;;;;;;;9.20;2.63;;;13.10;98.60;;;;;;5078085;28;20205;-80
2021/09/28 02:23:10;;;;;;;10.10;2.60;;;13.00;98.50;;;;;;5078081;28;20696;-81
2021/09/28 02:25:36;;;;;;;7.87;2.27;;;13.10;98.40;;;;;;5095992;28;20707;-81
2021/09/28 02:28:02;;;;;;;9.87;2.00;;;13.10;98.30;;;;;;5078005;28;20220;-79
2021/09/28 02:30:27;;;;;;;11.30;2.30;;;13.10;98.20;;;;;;5096155;28;20180;-80
2021/09/28 02:32:53;;;;;;;10.83;2.37;;;13.10;98.20;;;;;;5095459;28;20179;-80
2021/09/28 02:35:19;;;;;;;7.33;2.40;;;13.20;98.20;;;;;;5106386;28;20515;-79
2021/09/28 02:37:44;;;;;;;8.70;2.60;;;13.10;98.10;;;;;;5098504;28;20171;-81
2021/09/28 02:40:11;;;;;;;5.60;2.60;;;13.20;98.30;;;;;;5116763;28;20290;-80
2021/09/28 02:42:37;;;;;;;6.93;2.33;;;13.10;98.30;;;;;;5122585;28;20190;-81
2021/09/28 02:45:06;;;;;;;7.03;2.40;;;13.00;98.50;;;;;;5133783;28;20183;-81
2021/09/28 02:47:32;;;;;;;9.60;2.63;;;13.10;98.40;;;;;;5118352;28;20257;-81
2021/09/28 02:49:58;;;;;;;5.33;2.13;;;13.10;98.20;;;;;;5116584;28;20210;-81
2021/09/28 02:52:29;;;;;;;8.37;2.37;;;13.10;98.20;;;;;;5116334;28;20242;-80
2021/09/28 02:54:55;;;;;;;7.03;3.23;;;13.10;98.20;;;;;;5115948;28;20674;-82
2021/09/28 02:57:23;;;;;;;12.27;2.83;;;13.10;98.30;;;;;;5097705;28;20254;-83
2021/09/28 02:59:49;;;;;;;7.90;2.87;;;13.00;98.20;;;;;;5116236;28;20205;-80
2021/09/28 03:02:15;;;;;;;7.37;3.53;;;13.00;98.30;;;;;;5105378;28;20170;-80
2021/09/28 03:04:41;;;;;;;6.70;2.90;;;13.00;98.40;;;;;;5136662;28;20178;-79
2021/09/28 03:07:08;;;;;;;10.33;3.10;;;13.00;98.60;;;;;;5120722;28;20166;-82
2021/09/28 03:09:33;;;;;;;10.90;3.70;;;13.00;98.50;;;;;;5116605;28;20175;-78
2021/09/28 03:11:59;;;;;;;12.57;3.83;;;12.90;98.50;;;;;;5136625;28;20215;-80
2021/09/28 03:14:27;;;;;;;10.57;3.47;;;12.90;98.40;;;;;;5140169;28;20147;-80
2021/09/28 03:16:56;;;;;;;8.80;3.93;;;12.90;98.50;;;;;;5121195;28;20179;-82
2021/09/28 03:19:25;;;;;;;13.03;3.90;;;12.90;98.60;;;;;;5122491;28;20194;-81
2021/09/28 03:21:51;;;;;;;9.03;3.90;;;12.90;98.60;;;;;;5100435;28;20199;-81
2021/09/28 03:24:24;;;;;;;12.63;4.20;;;12.90;98.60;;;;;;5117303;28;20194;-81
2021/09/28 03:26:53;;;;;;;8.17;4.20;;;12.90;98.80;;;;;;5097957;28;20218;-82
2021/09/28 03:29:18;;;;;;;7.33;4.40;;;12.90;98.60;;;;;;5097184;28;20169;-82
2021/09/28 03:31:44;;;;;;;12.20;5.47;;;12.80;98.60;;;;;;5116178;28;20171;-82
2021/09/28 03:34:10;;;;;;;10.50;4.63;;;12.90;98.70;;;;;;5114879;28;20732;-81
2021/09/28 03:36:36;;;;;;;7.70;4.43;;;12.90;98.40;;;;;;5095021;28;20169;-81
2021/09/28 03:39:02;;;;;;;8.83;4.63;;;12.80;98.50;;;;;;5076580;28;20206;-81
2021/09/28 03:41:27;;;;;;;13.87;5.63;;;12.90;98.60;;;;;;5096510;28;20535;-79
2021/09/28 03:43:53;;;;;;;11.90;5.03;;;13.00;98.50;;;;;;5078682;28;20213;-81
2021/09/28 03:46:18;;;;;;;10.03;4.13;;;12.90;98.20;;;;;;5094744;28;20534;-81
2021/09/28 03:48:44;;;;;;;8.77;4.67;;;13.00;98.20;;;;;;5075892;28;20271;-81
2021/09/28 03:51:10;;;;;;;7.87;4.30;;;12.90;98.30;;;;;;5075583;28;20672;-81
2021/09/28 03:53:35;;;;;;;10.40;4.97;;;12.90;98.30;;;;;;5076371;28;20536;-82
2021/09/28 03:56:01;;;;;;;9.80;4.90;;;12.80;98.30;;;;;;5094462;28;20254;-81
2021/09/28 03:58:27;;;;;;;8.10;4.63;;;12.80;98.40;;;;;;5075954;28;20614;-82
2021/09/28 04:00:52;;;;;;;10.63;4.20;;;12.80;98.40;;;;;;5094456;28;20217;-82
2021/09/28 04:03:18;;;;;;;10.23;4.57;;;12.80;98.60;;;;;;5094464;28;20159;-82
2021/09/28 04:05:43;;;;;;;9.63;5.10;;;12.90;98.70;;;;;;5094059;28;20528;-81
2021/09/28 04:08:09;;;;;;;7.63;4.67;;;12.80;98.90;;;;;;5094348;28;20669;-81
2021/09/28 04:10:35;;;;;;;10.53;4.83;;;12.70;98.90;;;;;;5094112;28;20176;-81
2021/09/28 04:13:09;;;;;;;11.17;4.80;;;12.80;99.00;;;;;;5094127;28;20645;-81
2021/09/28 04:15:42;;;;;;;11.87;4.43;;;12.70;99.00;;;;;;5093937;28;20178;-83
2021/09/28 04:18:10;;;;;;;11.53;4.80;;;12.70;99.10;;;;;;5094085;28;20167;-81
2021/09/28 04:20:41;;;;;;;11.10;4.40;;;12.70;99.20;;;;;;5093950;28;20175;-82
2021/09/28 04:23:08;;;;;;;11.07;4.40;;;12.60;99.30;;;;;;5075649;28;20171;-82
2021/09/28 04:25:34;;;;;;;11.80;4.63;;;12.80;99.40;;;;;;5093677;28;20187;-82
2021/09/28 04:28:00;;;;;;;9.67;4.30;;;12.70;99.50;;;;;;5093965;28;20175;-82
2021/09/28 04:30:25;;;;;;;13.30;4.73;;;12.70;99.30;;;;;;5075558;28;20163;-80
2021/09/28 04:32:51;;;;;;;11.33;4.83;;;12.70;99.20;;;;;;5075285;28;20742;-81
2021/09/28 04:35:17;;;;;;;8.37;4.37;;;12.80;99.20;;;;;;5085178;28;20186;-80
2021/09/28 04:37:43;;;;;;;10.40;4.17;;;12.70;99.20;;;;;;5114014;28;20215;-81
2021/09/28 04:40:09;;;;;;;10.40;4.80;;;12.70;99.10;;;;;;5113375;28;20202;-81
2021/09/28 04:42:35;;;;;;;9.47;4.57;;;12.70;99.30;;;;;;5114132;28;20205;-81
2021/09/28 04:45:01;;;;;;;11.67;4.30;;;12.70;99.10;;;;;;5113699;28;20167;-83
2021/09/28 04:47:26;;;;;;;12.60;4.57;;;12.70;98.90;;;;;;5113685;28;20205;-81
2021/09/28 04:49:52;;;;;;;11.50;5.10;;;12.80;98.80;;;;;;5113901;28;20171;-82
2021/09/28 04:52:18;;;;;;;13.00;5.07;;;12.80;98.60;;;;;;5095918;28;20664;-83
2021/09/28 04:54:43;;;;;;;11.90;4.90;;;12.80;98.70;;;;;;5095597;28;20545;-83
2021/09/28 04:57:09;;;;;;;10.97;5.37;;;12.70;98.90;;;;;;5113791;28;20547;-83
2021/09/28 04:59:35;;;;;;;11.40;5.10;;;12.70;99.30;;;;;;5095194;28;20202;-84
2021/09/28 05:02:00;;;;;;;10.17;4.63;;;12.80;99.20;;;;;;5095352;28;20164;-82
2021/09/28 05:04:26;;;;;;;9.33;4.33;;;12.70;99.10;;;;;;5113702;28;20167;-82
2021/09/28 05:06:52;;;;;;;12.07;5.10;;;12.80;99.00;;;;;;5095582;28;20163;-82
2021/09/28 05:09:17;;;;;;;11.60;4.47;;;12.80;98.60;;;;;;5095352;28;20171;-82
2021/09/28 05:11:44;;;;;;;11.23;4.57;;;12.70;98.90;;;;;;5113481;28;20194;-82
2021/09/28 05:14:10;;;;;;;13.77;4.60;;;12.70;99.10;;;;;;5094866;28;20174;-82
2021/09/28 05:16:35;;;;;;;9.83;4.10;;;12.60;99.50;;;;;;5094710;28;20548;-84
2021/09/28 05:19:02;;;;;;;12.77;4.27;;;12.80;99.70;;;;;;5113596;28;20204;-82
2021/09/28 05:21:28;;;;;;;14.77;5.27;;;12.60;99.70;;;;;;5113309;28;20187;-81
2021/09/28 05:23:54;;;;;;;10.70;4.60;;;12.60;99.90;;;;;;5113307;28;20716;-83
2021/09/28 05:26:20;;;;;;;9.97;4.50;;;12.60;99.90;;;;;;5094952;28;20182;-83
2021/09/28 05:28:46;;;;;;;12.17;4.50;;;12.60;99.40;;;;;;5113212;28;20174;-81
2021/09/28 05:31:12;;;;;;;13.67;4.33;;;12.80;99.70;;;;;;5113668;28;20171;-81
2021/09/28 05:33:37;;;;;;;12.50;4.73;;;12.60;99.30;;;;;;5094985;28;20167;-82
2021/09/28 05:36:04;;;;;;;11.87;4.97;;;12.60;99.40;;;;;;5097079;28;20290;-84
2021/09/28 05:38:29;;;;;;;10.53;4.50;;;12.60;99.70;;;;;;5092158;28;20244;-82
2021/09/28 05:40:55;;;;;;;9.93;4.13;;;12.60;99.90;;;;;;5092760;28;20638;-82
2021/09/28 05:43:21;;;;;;;13.83;4.70;;;12.50;99.90;;;;;;5092964;28;20271;-81
2021/09/28 05:45:47;;;;;;;14.50;4.67;;;12.60;99.90;;;;;;5076717;28;20210;-81
2021/09/28 05:48:12;;;;;;;8.83;4.10;;;12.60;99.90;;;;;;5092736;28;20172;-83
2021/09/28 05:50:39;;;;;;;11.43;4.53;;;12.60;99.90;;;;;;5075476;28;20641;-82
2021/09/28 05:53:10;;;;;;;12.07;4.30;;;12.70;99.90;;;;;;5074864;28;20179;-83
2021/09/28 05:55:36;;;;;;;11.13;4.13;;;12.70;99.80;;;;;;5074748;28;20570;-82
2021/09/28 05:58:02;;;;;;;12.03;4.50;;;12.80;99.60;;;;;;5060419;28;20612;-82
2021/09/28 06:00:28;;;;;;;11.10;4.33;;;12.80;99.50;;;;;;5072352;28;20207;-81
2021/09/28 06:02:53;;;;;;;14.60;5.07;;;12.90;99.00;;;;;;5064793;28;20206;-82
2021/09/28 06:05:23;;;;;;;10.83;4.50;;;12.90;98.70;;;;;;5091369;28;20187;-83
2021/09/28 06:07:49;;;;;;;11.70;4.30;;;13.00;98.50;;;;;;5074923;28;20202;-82
2021/09/28 06:10:15;;;;;;;10.60;4.80;;;13.00;98.50;;;;;;5093441;28;20168;-80
2021/09/28 06:12:41;;;;;;;12.70;5.07;;;13.00;98.20;;;;;;5094779;28;20216;-81
2021/09/28 06:15:07;;;;;;;12.87;4.33;;;13.00;98.20;;;;;;5076769;28;20305;-82
2021/09/28 06:17:33;;;;;;;12.10;4.63;;;13.10;98.10;;;;;;5071774;28;20233;-80
2021/09/28 06:19:59;;;;;;;12.17;4.43;;;13.00;98.10;;;;;;5098196;28;20627;-80
2021/09/28 06:22:28;;;;;;;12.07;5.00;;;13.10;98.30;;;;;;5100299;28;20175;-81
2021/09/28 06:24:55;;;;;;;11.50;4.77;;;13.20;98.00;;;;;;5082526;28;20206;-82
2021/09/28 06:27:22;;;;;;;13.13;4.50;;;13.00;97.90;;;;;;5090366;28;20203;-80
2021/09/28 06:29:49;;;;;;;13.60;5.27;;;13.10;98.20;;;;;;5077835;28;20639;-80
2021/09/28 06:32:17;;;;;;;12.90;6.23;;;13.20;97.90;;;;;;5097588;28;20206;-79
2021/09/28 06:34:43;;;;;;;12.40;4.90;;;13.30;97.70;;;;;;5078732;28;20511;-80
2021/09/28 06:37:14;;;;;;;13.53;5.00;;;13.40;97.20;;;;;;5097267;28;20242;-84
2021/09/28 06:39:40;;;;;;;13.07;4.97;;;13.40;96.80;;;;;;5098131;28;20209;-83
2021/09/28 06:42:06;;;;;;;15.00;4.80;;;13.40;96.60;;;;;;5096438;28;20631;-84
2021/09/28 06:44:32;;;;;;;9.03;4.67;;;13.40;96.60;;;;;;5078480;28;20270;-81
2021/09/28 06:46:58;;;;;;;15.13;6.00;;;13.40;96.40;;;;;;5082238;28;20160;-83
2021/09/28 06:49:24;;;;;;;11.53;5.30;;;13.40;96.40;;;;;;5110252;28;20176;-81
2021/09/28 06:51:49;;;;;;;13.70;5.70;;;13.60;96.60;;;;;;5113413;28;20180;-81
2021/09/28 06:54:15;;;;;;;11.00;5.80;;;13.50;96.10;;;;;;5078467;28;20183;-82
2021/09/28 06:56:42;;;;;;;13.10;5.57;;;13.60;96.20;;;;;;5096869;28;20195;-81
2021/09/28 06:59:10;;;;;;;12.43;5.07;;;13.70;95.70;;;;;;5095702;28;20222;-82
2021/09/28 07:01:39;;;;;;;12.43;6.03;;;13.90;95.40;;;;;;5097392;28;20248;-81
2021/09/28 07:04:05;;;;;;;9.10;5.27;;;13.90;94.90;;;;;;5098144;28;20203;-82
2021/09/28 07:06:32;;;;;;;12.37;5.27;;;13.90;94.40;;;;;;5098054;28;20214;-83
2021/09/28 07:08:57;;;;;;;16.00;5.57;;;14.00;94.00;;;;;;5077949;28;20189;-83
2021/09/28 07:11:23;;;;;;;10.87;5.57;;;14.10;93.90;;;;;;5095099;28;20303;-82
2021/09/28 07:13:50;;;;;;;9.30;4.97;;;14.20;93.40;;;;;;5095548;28;20168;-83
2021/09/28 07:16:16;;;;;;;9.47;4.87;;;14.20;92.70;;;;;;5095328;28;20181;-83
2021/09/28 07:18:43;;;;;;;13.50;5.77;;;14.30;92.10;;;;;;5095169;28;20246;-81
2021/09/28 07:21:09;;;;;;;12.60;6.10;;;14.30;91.70;;;;;;5095097;28;20645;-82
2021/09/28 07:23:36;;;;;;;12.40;5.30;;;14.50;91.70;;;;;;5094856;28;20278;-82
2021/09/28 07:26:02;;;;;;;11.57;4.83;;;14.50;91.10;;;;;;5093516;28;20188;-83
2021/09/28 07:28:29;;;;;;;14.10;5.43;;;14.70;89.60;;;;;;5095026;28;20524;-83
2021/09/28 07:30:55;;;;;;;14.83;4.87;;;14.70;88.60;;;;;;5095777;28;20219;-82
2021/09/28 07:33:21;;;;;;;14.97;4.70;;;14.60;89.50;;;;;;5076211;28;20181;-83
2021/09/28 07:35:47;;;;;;;11.90;5.17;;;14.50;90.10;;;;;;5094583;28;20528;-82
2021/09/28 07:38:13;;;;;;;12.00;5.03;;;14.60;90.50;;;;;;5094548;28;20175;-83
2021/09/28 07:40:41;;;;;;;14.47;5.10;;;14.60;90.40;;;;;;5095050;28;20246;-83
2021/09/28 07:43:07;;;;;;;14.87;4.80;;;14.70;90.50;;;;;;5077310;28;20195;-84
2021/09/28 07:45:33;;;;;;;14.20;5.57;;;14.90;90.40;;;;;;5076700;28;20188;-84
2021/09/28 07:47:59;;;;;;;10.93;4.57;;;14.80;90.30;;;;;;5094677;28;20203;-83
2021/09/28 07:50:25;;;;;;;9.80;4.23;;;14.90;88.90;;;;;;5094632;28;20602;-83
2021/09/28 07:52:52;;;;;;;14.17;5.37;;;15.10;87.10;;;;;;5094644;28;20179;-82
2021/09/28 07:55:17;;;;;;;12.07;4.53;;;15.20;86.70;;;;;;5075900;28;20183;-83
2021/09/28 07:57:43;;;;;;;10.83;4.47;;;15.20;86.10;;;;;;5094690;28;20172;-84
2021/09/28 08:00:10;;;;;;;9.70;4.40;;;15.40;84.90;;;;;;5076137;28;20635;-83
2021/09/28 08:02:39;;;;;;;12.97;4.77;;;15.40;83.70;;;;;;5095578;28;20251;-82
2021/09/28 08:05:06;;;;;;;9.30;3.60;;;15.40;83.10;;;;;;5095216;28;20191;-84
2021/09/28 08:07:32;;;;;;;10.20;4.43;;;15.50;81.80;;;;;;5094973;28;20263;-84
2021/09/28 08:09:58;;;;;;;10.67;4.37;;;15.70;79.40;;;;;;5094894;28;20199;-83
2021/09/28 08:12:24;;;;;;;10.87;3.73;;;15.80;79.00;;;;;;5081548;28;20194;-81
2021/09/28 08:14:50;;;;;;;11.77;3.83;;;15.80;78.20;;;;;;5107457;28;20172;-81
2021/09/28 08:17:16;;;;;;;12.27;4.80;;;15.80;78.40;;;;;;5088690;28;20214;-83
2021/09/28 08:19:43;;;;;;;14.10;4.67;;;15.80;78.10;;;;;;5109183;28;20195;-82
2021/09/28 08:22:11;;;;;;;14.10;3.90;;;15.90;78.30;;;;;;5107087;28;20185;-85
2021/09/28 08:24:42;;;;;;;12.73;4.53;;;16.00;77.00;;;;;;5098080;28;20195;-84
2021/09/28 08:30:00;;;;;;;13.90;5.00;;;16.20;72.50;;;;;;5094767;28;20646;-85
2021/09/28 08:32:31;;;;;;;11.30;4.43;;;16.30;70.10;;;;;;5095311;28;20760;-83
2021/09/28 08:34:58;;;;;;;10.50;4.47;;;16.20;68.90;;;;;;5094329;28;20642;-84
2021/09/28 08:37:26;;;;;;;12.70;4.93;;;16.10;71.00;;;;;;5075631;28;20183;-86
2021/09/28 08:39:53;;;;;;;12.37;4.63;;;16.10;72.00;;;;;;5093737;28;20204;-85
2021/09/28 08:42:20;;;;;;;10.43;4.93;;;16.00;72.50;;;;;;5093786;28;20657;-85
2021/09/28 08:44:45;;;;;;;10.17;5.07;;;16.00;71.00;;;;;;5094087;28;20356;-85
2021/09/28 08:47:11;;;;;;;12.37;5.77;;;16.10;70.20;;;;;;5097362;28;20258;-84
2021/09/28 08:49:37;;;;;;;11.67;5.37;;;16.10;70.70;;;;;;5076087;28;20171;-85
2021/09/28 08:52:04;;;;;;;11.23;4.97;;;16.10;71.20;;;;;;5093500;28;20194;-84
2021/09/28 08:54:31;;;;;;;8.13;4.63;;;16.10;70.90;;;;;;5094071;28;20629;-83
2021/09/28 08:56:57;;;;;;;13.37;5.47;;;16.20;71.00;;;;;;5075268;28;20181;-84
2021/09/28 08:59:48;;;;;;;9.77;5.33;;;16.30;70.30;;;;;;5093554;28;20260;-83
2021/09/28 09:02:15;;;;;;;8.30;4.27;;;16.40;67.50;;;;;;5075076;28;20172;-84
2021/09/28 09:04:42;;;;;;;11.17;5.03;;;16.40;66.40;;;;;;5093680;28;20176;-85
2021/09/28 09:07:26;;;;;;;10.43;4.57;;;16.50;64.70;;;;;;5093234;28;20254;-84
2021/09/28 09:09:51;;;;;;;13.10;4.40;;;16.40;66.20;;;;;;5075570;28;20171;-85
2021/09/28 09:12:41;;;;;;;10.20;4.90;;;16.40;67.10;;;;;;5093232;28;20183;-85
2021/09/28 09:15:21;;;;;;;9.13;3.37;;;16.50;66.30;;;;;;5093580;28;20534;-86
2021/09/28 09:17:52;;;;;;;13.90;4.40;;;16.40;66.90;;;;;;5093519;28;20266;-85
2021/09/28 09:20:36;;;;;;;9.37;4.00;;;16.50;68.00;;;;;;5075272;28;20207;-85
2021/09/28 09:23:24;;;;;;;8.90;3.90;;;16.50;67.40;;;;;;5077599;28;20171;-84
2021/09/28 09:26:18;;;;;;;8.70;3.53;;;16.60;65.00;;;;;;5112962;28;20183;-84
2021/09/28 09:28:49;;;;;;;11.20;3.30;;;16.80;63.50;;;;;;5092801;28;20195;-84
2021/09/28 09:31:23;;;;;;;9.27;3.57;;;16.90;60.60;;;;;;5094179;28;20295;-83
2021/09/28 09:33:53;;;;;;;12.07;3.93;;;17.10;60.40;;;;;;5093757;28;20162;-82
2021/09/28 09:36:21;;;;;;;10.07;3.50;;;17.30;56.70;;;;;;5075692;28;20203;-84
2021/09/28 09:38:54;;;;;;;9.03;2.90;;;17.40;55.10;;;;;;5093758;28;20654;-83
2021/09/28 09:41:30;;;;;;;13.13;3.17;;;17.40;54.00;;;;;;5093898;28;20626;-82
2021/09/28 09:44:08;;;;;;;7.87;2.43;;;17.50;52.80;;;;;;5102421;28;20164;-81
2021/09/28 09:46:40;;;;;;;8.40;2.83;;;17.60;49.60;;;;;;5104694;28;20182;-81
2021/09/28 09:49:06;;;;;;;8.73;2.77;;;17.70;47.90;;;;;;5095628;28;20161;-83
2021/09/28 09:51:41;;;;;;;10.30;3.33;;;17.80;47.00;;;;;;5096631;28;20631;-84
2021/09/28 09:54:06;;;;;;;7.53;2.90;;;17.90;45.60;;;;;;5097289;28;20190;-85
2021/09/28 09:56:52;;;;;;;10.73;3.43;;;17.90;42.30;;;;;;5078679;28;20269;-84
2021/09/28 09:59:22;;;;;;;9.63;3.60;;;18.10;38.90;;;;;;5096635;28;20242;-84
2021/09/28 10:01:50;;;;;;;9.53;3.50;;;18.20;39.40;;;;;;5096924;28;20155;-84
2021/09/28 10:04:18;;;;;;;10.27;3.00;;;18.20;37.70;;;;;;5097069;28;20579;-83
2021/09/28 10:06:45;;;;;;;7.47;2.50;;;18.30;38.00;;;;;;5097448;28;20192;-83
2021/09/28 10:09:17;;;;;;;10.73;2.77;;;18.30;36.30;;;;;;5078625;28;20201;-83
2021/09/28 10:11:43;;;;;;;9.57;2.67;;;18.50;36.20;;;;;;5096608;28;20199;-85
2021/09/28 10:14:37;;;;;;;12.53;3.77;;;18.50;34.70;;;;;;5098486;28;20178;-85
2021/09/28 10:17:28;;;;;;;15.17;4.63;;;18.60;34.10;;;;;;5097992;28;20192;-85
2021/09/28 10:20:02;;;;;;;8.30;2.43;;;18.90;29.70;;;;;;5097325;28;20211;-85
2021/09/28 10:22:55;;;;;;;7.13;1.87;;;18.80;26.20;;;;;;5078721;28;20217;-84
2021/09/28 10:27:50;;;;;;;11.30;2.33;;;18.70;29.30;;;;;;5096705;28;20195;-84
2021/09/28 10:30:34;;;;;;;9.60;2.17;;;18.70;32.60;;;;;;5097172;28;20643;-84
2021/09/28 10:33:21;;;;;;;8.20;2.17;;;18.90;28.80;;;;;;5096392;28;20164;-84
2021/09/28 10:35:57;;;;;;;7.20;2.03;;;19.10;26.70;;;;;;5078109;28;20176;-84
2021/09/28 10:38:53;;;;;;;9.90;2.20;;;19.00;21.00;;;;;;5095990;28;20164;-85
2021/09/28 10:41:35;;;;;;;8.97;2.17;;;19.10;22.40;;;;;;5079298;28;20171;-84
2021/09/28 10:44:29;;;;;;;7.43;2.13;;;19.10;16.80;;;;;;5095908;28;20188;-82
2021/09/28 10:46:58;;;;;;;10.80;2.97;;;19.10;16.70;;;;;;5099347;28;20186;-83
2021/09/28 10:49:29;;;;;;;8.87;2.27;;;19.30;19.10;;;;;;5097628;28;20252;-83
2021/09/28 10:52:20;;;;;;;9.27;2.10;;;19.20;12.80;;;;;;5080263;28;20267;-83
2021/09/28 10:55:12;;;;;;;9.97;2.50;;;19.30;13.40;;;;;;5095962;28;20167;-83
2021/09/28 10:58:04;;;;;;;12.73;2.60;;;19.20;14.50;;;;;;5074416;28;20180;-85
2021/09/28 11:00:39;;;;;;;7.23;1.87;;;19.30;5.00;;;;;;5095632;28;20256;-84
2021/09/28 11:03:05;;;;;;;5.87;2.07;;;19.30;1.00;;;;;;5095243;28;20205;-84
2021/09/28 11:05:34;;;;;;;8.03;1.67;;;19.40;1.00;;;;;;5095781;28;20247;-84
2021/09/28 11:08:01;;;;;;;4.30;1.63;;;19.30;1.00;;;;;;5095716;28;20159;-83
2021/09/28 11:10:36;;;;;;;3.60;1.43;;;19.10;2.60;;;;;;5095663;28;20174;-83
2021/09/28 11:13:48;;;;;;;6.13;2.10;;;19.00;5.50;;;;;;5077227;28;20190;-84
2021/09/28 11:16:14;;;;;;;10.17;2.07;;;19.10;1.00;;;;;;5077313;28;20179;-85
2021/09/28 11:18:54;;;;;;;10.07;2.47;;;19.20;1.00;;;;;;5076592;28;20711;-84
2021/09/28 11:21:20;;;;;;;7.63;1.97;;;19.30;1.00;;;;;;5078721;28;20176;-82
2021/09/28 11:23:53;;;;;;;6.73;1.90;;;19.50;1.00;;;;;;5077914;28;20527;-83
2021/09/28 11:26:31;;;;;;;7.77;2.20;;;19.70;1.00;;;;;;5076857;28;20218;-83
2021/09/28 11:28:59;;;;;;;6.23;1.60;;;19.70;1.00;;;;;;5077166;28;20513;-85
2021/09/28 11:31:33;;;;;;;4.30;1.83;;;19.70;1.00;;;;;;5076815;28;20206;-83
2021/09/28 11:34:00;;;;;;;8.73;1.70;;;19.70;1.00;;;;;;5095316;28;20712;-86
2021/09/28 11:36:31;;;;;;;9.60;2.37;;;19.60;1.00;;;;;;5077677;28;20177;-85
2021/09/28 11:38:57;;;;;;;6.40;2.07;;;19.70;1.00;;;;;;5077358;28;20217;-86
2021/09/28 11:41:23;;;;;;;7.27;1.83;;;19.70;1.00;;;;;;5095663;28;20165;-86
2021/09/28 11:43:59;;;;;;;9.07;1.80;;;19.80;1.00;;;;;;5076844;28;20546;-85
2021/09/28 11:46:28;;;;;;;7.90;2.07;;;19.80;1.00;;;;;;5076426;28;20701;-81
2021/09/28 11:49:14;;;;;;;9.37;1.73;;;19.70;1.00;;;;;;5095279;28;20581;-83
2021/09/28 11:51:42;;;;;;;12.67;2.33;;;19.60;1.00;;;;;;5077152;28;20180;-85
2021/09/28 11:54:16;;;;;;;9.23;2.40;;;19.80;1.00;;;;;;5077091;28;20189;-83
2021/09/28 11:56:46;;;;;;;8.63;2.40;;;19.90;1.00;;;;;;5078067;28;20171;-84
2021/09/28 11:59:21;;;;;;;6.37;1.80;;;19.90;1.00;;;;;;5076952;28;20207;-85
2021/09/28 12:01:51;;;;;;;7.73;1.80;;;19.80;1.00;;;;;;5076944;28;20662;-84
2021/09/28 12:04:32;;;;;;;7.43;1.53;;;19.80;1.00;;;;;;5077106;28;20690;-85
2021/09/28 12:09:35;;;;;;;10.50;1.63;;;19.90;1.00;;;;;;5094976;28;20360;-86
2021/09/28 12:12:09;;;;;;;6.60;1.60;;;19.90;1.00;;;;;;5094677;28;20183;-84
2021/09/28 12:14:43;;;;;;;6.47;1.93;;;19.80;1.00;;;;;;5075922;28;20180;-84
2021/09/28 12:17:20;;;;;;;6.23;1.50;;;19.90;1.00;;;;;;5094847;28;20169;-84
2021/09/28 12:20:00;;;;;;;5.80;1.77;;;20.10;1.00;;;;;;5095509;28;20210;-83
2021/09/28 12:22:30;;;;;;;8.07;2.20;;;19.90;1.00;;;;;;5100334;28;20195;-82
2021/09/28 12:24:58;;;;;;;5.67;1.87;;;19.90;1.00;;;;;;5098222;28;20276;-85
2021/09/28 12:27:25;;;;;;;6.87;1.80;;;19.90;1.00;;;;;;5097667;28;20160;-83
2021/09/28 12:29:54;;;;;;;4.13;1.30;;;19.80;1.00;;;;;;5103185;28;20222;-84
2021/09/28 12:32:28;;;;;;;7.40;2.07;;;19.80;1.00;;;;;;5094165;28;20160;-86
2021/09/28 12:34:58;;;;;;;6.87;1.70;;;19.60;1.00;;;;;;5093485;28;20171;-84
2021/09/28 12:37:25;;;;;;;6.10;1.80;;;19.60;1.00;;;;;;5091126;28;20172;-82
2021/09/28 12:40:05;;;;;;;8.70;1.90;;;19.60;1.00;;;;;;5104989;28;20203;-85
2021/09/28 12:42:32;;;;;;;7.90;1.70;;;19.70;1.00;;;;;;5100197;28;20229;-85
2021/09/28 12:45:05;;;;;;;5.20;1.60;;;20.00;1.00;;;;;;5098261;28;20169;-83
2021/09/28 12:47:45;;;;;;;5.57;1.40;;;20.20;1.00;;;;;;5099666;28;20171;-84
2021/09/28 12:50:19;;;;;;;10.17;1.80;;;20.20;1.00;;;;;;5096319;28;20152;-84
2021/09/28 12:52:45;;;;;;;7.87;1.57;;;20.00;1.00;;;;;;5093961;28;20236;-84
2021/09/28 12:55:12;;;;;;;6.90;1.90;;;19.70;1.00;;;;;;5095500;28;20214;-84
2021/09/28 12:57:38;;;;;;;8.37;2.40;;;19.80;1.00;;;;;;5101458;28;20168;-84
2021/09/28 13:00:06;;;;;;;4.80;1.70;;;19.80;1.00;;;;;;5080156;28;20294;-83